Hauptseite
METAR-TAF:

METAR-TAF

Flughäfen :

MoD Boscombe Down

Boscombe Down, England

Breite: 51-10N, Länge: 001-45W, Höhe: 124 m

Beobachtung

Neuester Wetterbericht von vor 43 Minuten, um 18:50 UTC
Wind 6 kt aus Nordwest
Temperatur 13°C
Luftfeuchtigkeit 88%
Luftdruck 1028 hPa
Sichtweite 10 km oder mehr

METAR: EGDM 211850Z AUTO 31006KT 9999 BKN023/// 13/11 Q1028

Zeit: 20:33 (19:33 UTC)


TAF: fehlend

Wetterbeobachtungen und Prognosen von mehr als 4000 Flughäfen (METAR und TAF Bericht).

Die verfügbaren Stationen werden durch gelbe und rote Markierungen auf der Karte dargestellt.

Führen Sie die Maus auf sie, um den Namen der Station zu sehen.

Darauf klicken, um die Beobachtung von Wetterbeobachtungen und Prognosen zu sehen.

Um die Karte zu ändern : klicken Sie auf den grünen Tasten mit einem schwarzen Kreuz Zum Vergrößern, auf den grünen Button mit einem Gedankenstrich zu verkleinern, oder auf die grünen Pfeile für benachbarte Karten.


METAR-TAF: